sensor_id;sensor_type;location;lat;lon;timestamp;pressure;altitude;pressure_sealevel;temperature
69785;BMP280;14177;51.520;6.764;2023-03-14T00:01:18;98845.78;;;12.67
69785;BMP280;14177;51.520;6.764;2023-03-14T00:03:47;98821.41;;;12.68
69785;BMP280;14177;51.520;6.764;2023-03-14T00:06:15;98832.69;;;12.68
69785;BMP280;14177;51.520;6.764;2023-03-14T00:08:43;98816.84;;;12.59
69785;BMP280;14177;51.520;6.764;2023-03-14T00:11:15;98814.25;;;12.59
69785;BMP280;14177;51.520;6.764;2023-03-14T00:13:42;98812.28;;;12.62
69785;BMP280;14177;51.520;6.764;2023-03-14T00:16:12;98799.84;;;12.66
69785;BMP280;14177;51.520;6.764;2023-03-14T00:18:40;98793.69;;;12.67
69785;BMP280;14177;51.520;6.764;2023-03-14T00:21:10;98784.00;;;12.69
69785;BMP280;14177;51.520;6.764;2023-03-14T00:23:40;98771.94;;;12.68
69785;BMP280;14177;51.520;6.764;2023-03-14T00:26:13;98772.66;;;12.70
69785;BMP280;14177;51.520;6.764;2023-03-14T00:28:41;98784.66;;;12.72
69785;BMP280;14177;51.520;6.764;2023-03-14T00:31:12;98785.13;;;12.77
69785;BMP280;14177;51.520;6.764;2023-03-14T00:33:41;98785.75;;;12.81
69785;BMP280;14177;51.520;6.764;2023-03-14T00:36:13;98800.22;;;12.85
69785;BMP280;14177;51.520;6.764;2023-03-14T00:38:42;98825.13;;;12.89
69785;BMP280;14177;51.520;6.764;2023-03-14T00:41:13;98846.41;;;12.83
69785;BMP280;14177;51.520;6.764;2023-03-14T00:43:41;98823.09;;;12.69
69785;BMP280;14177;51.520;6.764;2023-03-14T00:46:08;98832.47;;;12.59
69785;BMP280;14177;51.520;6.764;2023-03-14T00:48:36;98833.31;;;12.47
69785;BMP280;14177;51.520;6.764;2023-03-14T00:51:08;98839.38;;;12.35
69785;BMP280;14177;51.520;6.764;2023-03-14T00:53:38;98830.09;;;12.31
69785;BMP280;14177;51.520;6.764;2023-03-14T00:56:11;98825.59;;;12.20
69785;BMP280;14177;51.520;6.764;2023-03-14T00:58:39;98813.53;;;12.07
69785;BMP280;14177;51.520;6.764;2023-03-14T01:01:15;98829.88;;;12.09
69785;BMP280;14177;51.520;6.764;2023-03-14T01:03:43;98831.41;;;11.99
69785;BMP280;14177;51.520;6.764;2023-03-14T01:06:17;98835.47;;;11.91
69785;BMP280;14177;51.520;6.764;2023-03-14T01:08:46;98840.03;;;11.87
69785;BMP280;14177;51.520;6.764;2023-03-14T01:11:19;98848.03;;;11.84
69785;BMP280;14177;51.520;6.764;2023-03-14T01:13:47;98837.22;;;11.78
69785;BMP280;14177;51.520;6.764;2023-03-14T01:16:19;98834.06;;;11.73
69785;BMP280;14177;51.520;6.764;2023-03-14T01:18:47;98850.50;;;11.73
69785;BMP280;14177;51.520;6.764;2023-03-14T01:21:26;98841.16;;;11.83
69785;BMP280;14177;51.520;6.764;2023-03-14T01:23:56;98842.63;;;11.75
69785;BMP280;14177;51.520;6.764;2023-03-14T01:26:26;98840.09;;;11.73
69785;BMP280;14177;51.520;6.764;2023-03-14T01:28:55;98840.41;;;11.69
69785;BMP280;14177;51.520;6.764;2023-03-14T01:31:24;98834.16;;;11.71
69785;BMP280;14177;51.520;6.764;2023-03-14T01:33:51;98832.63;;;11.69
69785;BMP280;14177;51.520;6.764;2023-03-14T01:36:19;98834.59;;;11.65
69785;BMP280;14177;51.520;6.764;2023-03-14T01:38:46;98839.06;;;11.63
69785;BMP280;14177;51.520;6.764;2023-03-14T01:41:22;98820.13;;;11.61
69785;BMP280;14177;51.520;6.764;2023-03-14T01:43:52;98837.19;;;11.65
69785;BMP280;14177;51.520;6.764;2023-03-14T01:46:28;98842.16;;;11.68
69785;BMP280;14177;51.520;6.764;2023-03-14T01:54:46;98816.81;;;11.45
69785;BMP280;14177;51.520;6.764;2023-03-14T01:57:21;98817.59;;;11.33
69785;BMP280;14177;51.520;6.764;2023-03-14T02:00:06;98813.03;;;11.37
69785;BMP280;14177;51.520;6.764;2023-03-14T02:02:47;98813.91;;;11.23
69785;BMP280;14177;51.520;6.764;2023-03-14T02:05:22;98830.94;;;11.15
69785;BMP280;14177;51.520;6.764;2023-03-14T02:08:04;98828.41;;;11.13
69785;BMP280;14177;51.520;6.764;2023-03-14T02:10:46;98825.94;;;11.12
69785;BMP280;14177;51.520;6.764;2023-03-14T02:13:18;98809.28;;;11.14
69785;BMP280;14177;51.520;6.764;2023-03-14T02:15:59;98808.56;;;11.12
69785;BMP280;14177;51.520;6.764;2023-03-14T02:18:45;98798.31;;;11.23
69785;BMP280;14177;51.520;6.764;2023-03-14T02:21:59;98800.41;;;11.31
69785;BMP280;14177;51.520;6.764;2023-03-14T02:25:08;98808.31;;;11.29
69785;BMP280;14177;51.520;6.764;2023-03-14T02:27:36;98804.81;;;11.30
69785;BMP280;14177;51.520;6.764;2023-03-14T02:30:11;98808.63;;;11.25
69785;BMP280;14177;51.520;6.764;2023-03-14T02:32:45;98804.41;;;11.36
69785;BMP280;14177;51.520;6.764;2023-03-14T02:35:20;98800.22;;;11.34
69785;BMP280;14177;51.520;6.764;2023-03-14T02:38:10;98815.06;;;11.32
69785;BMP280;14177;51.520;6.764;2023-03-14T02:40:44;98817.97;;;11.27
69785;BMP280;14177;51.520;6.764;2023-03-14T02:43:11;98824.41;;;11.22
69785;BMP280;14177;51.520;6.764;2023-03-14T02:45:47;98819.09;;;11.23
69785;BMP280;14177;51.520;6.764;2023-03-14T02:48:45;98818.91;;;11.26
69785;BMP280;14177;51.520;6.764;2023-03-14T02:51:15;98816.63;;;11.22
69785;BMP280;14177;51.520;6.764;2023-03-14T02:53:46;98805.38;;;11.21
69785;BMP280;14177;51.520;6.764;2023-03-14T02:56:14;98808.28;;;11.17
69785;BMP280;14177;51.520;6.764;2023-03-14T02:58:40;98814.09;;;11.20
69785;BMP280;14177;51.520;6.764;2023-03-14T03:01:28;98811.31;;;11.23
69785;BMP280;14177;51.520;6.764;2023-03-14T03:03:55;98807.78;;;11.24
69785;BMP280;14177;51.520;6.764;2023-03-14T03:06:22;98805.84;;;11.28
69785;BMP280;14177;51.520;6.764;2023-03-14T03:08:49;98802.94;;;11.32
69785;BMP280;14177;51.520;6.764;2023-03-14T03:11:16;98801.34;;;11.30
69785;BMP280;14177;51.520;6.764;2023-03-14T03:13:43;98797.94;;;11.29
69785;BMP280;14177;51.520;6.764;2023-03-14T03:16:11;98797.94;;;11.29
69785;BMP280;14177;51.520;6.764;2023-03-14T03:18:40;98788.34;;;11.30
69785;BMP280;14177;51.520;6.764;2023-03-14T03:21:07;98786.59;;;11.30
69785;BMP280;14177;51.520;6.764;2023-03-14T03:23:36;98788.66;;;11.25
69785;BMP280;14177;51.520;6.764;2023-03-14T03:26:05;98793.97;;;11.24
69785;BMP280;14177;51.520;6.764;2023-03-14T03:28:32;98788.97;;;11.21
69785;BMP280;14177;51.520;6.764;2023-03-14T03:31:06;98779.31;;;11.23
69785;BMP280;14177;51.520;6.764;2023-03-14T03:33:36;98778.38;;;11.24
69785;BMP280;14177;51.520;6.764;2023-03-14T03:36:04;98777.53;;;11.23
69785;BMP280;14177;51.520;6.764;2023-03-14T03:38:39;98779.19;;;11.24
69785;BMP280;14177;51.520;6.764;2023-03-14T03:41:12;98752.81;;;11.30
69785;BMP280;14177;51.520;6.764;2023-03-14T03:43:53;98759.69;;;11.31
69785;BMP280;14177;51.520;6.764;2023-03-14T03:46:47;98757.16;;;11.30
69785;BMP280;14177;51.520;6.764;2023-03-14T03:49:28;98751.16;;;11.29
69785;BMP280;14177;51.520;6.764;2023-03-14T03:52:51;98776.00;;;11.33
69785;BMP280;14177;51.520;6.764;2023-03-14T04:07:46;98761.53;;;11.17
69785;BMP280;14177;51.520;6.764;2023-03-14T04:11:16;98783.13;;;11.17
69785;BMP280;14177;51.520;6.764;2023-03-14T04:14:31;98760.44;;;11.07
69785;BMP280;14177;51.520;6.764;2023-03-14T04:18:09;98768.31;;;11.05
69785;BMP280;14177;51.520;6.764;2023-03-14T04:21:39;98751.91;;;11.05
69785;BMP280;14177;51.520;6.764;2023-03-14T04:26:05;98742.72;;;10.99
69785;BMP280;14177;51.520;6.764;2023-03-14T04:29:07;98742.84;;;10.98
69785;BMP280;14177;51.520;6.764;2023-03-14T04:32:15;98747.72;;;11.02
69785;BMP280;14177;51.520;6.764;2023-03-14T04:43:38;98743.53;;;10.88
69785;BMP280;14177;51.520;6.764;2023-03-14T04:46:16;98750.66;;;10.84
69785;BMP280;14177;51.520;6.764;2023-03-14T04:48:49;98739.66;;;10.81
69785;BMP280;14177;51.520;6.764;2023-03-14T04:51:25;98728.53;;;10.79
69785;BMP280;14177;51.520;6.764;2023-03-14T04:54:22;98726.41;;;10.71
69785;BMP280;14177;51.520;6.764;2023-03-14T04:56:58;98736.72;;;10.59
69785;BMP280;14177;51.520;6.764;2023-03-14T04:59:35;98742.31;;;10.53
69785;BMP280;14177;51.520;6.764;2023-03-14T05:02:31;98743.53;;;10.47
69785;BMP280;14177;51.520;6.764;2023-03-14T05:05:33;98727.03;;;10.34
69785;BMP280;14177;51.520;6.764;2023-03-14T05:08:32;98729.91;;;10.30
69785;BMP280;14177;51.520;6.764;2023-03-14T05:14:57;98726.88;;;10.23
69785;BMP280;14177;51.520;6.764;2023-03-14T05:18:37;98731.03;;;10.12
69785;BMP280;14177;51.520;6.764;2023-03-14T05:21:21;98734.75;;;10.08
69785;BMP280;14177;51.520;6.764;2023-03-14T05:24:48;98717.41;;;10.08
69785;BMP280;14177;51.520;6.764;2023-03-14T05:27:55;98730.84;;;10.01
69785;BMP280;14177;51.520;6.764;2023-03-14T05:30:50;98718.03;;;9.98
69785;BMP280;14177;51.520;6.764;2023-03-14T05:33:53;98712.13;;;9.96
69785;BMP280;14177;51.520;6.764;2023-03-14T05:37:08;98703.03;;;9.89
69785;BMP280;14177;51.520;6.764;2023-03-14T05:40:35;98705.81;;;9.86
69785;BMP280;14177;51.520;6.764;2023-03-14T05:43:48;98711.38;;;9.94
69785;BMP280;14177;51.520;6.764;2023-03-14T05:47:01;98719.97;;;9.94
69785;BMP280;14177;51.520;6.764;2023-03-14T05:50:01;98705.84;;;10.00
69785;BMP280;14177;51.520;6.764;2023-03-14T05:53:15;98706.00;;;9.97
69785;BMP280;14177;51.520;6.764;2023-03-14T05:56:03;98691.97;;;10.01
69785;BMP280;14177;51.520;6.764;2023-03-14T05:58:53;98692.69;;;10.03
69785;BMP280;14177;51.520;6.764;2023-03-14T06:01:52;98700.69;;;9.98
69785;BMP280;14177;51.520;6.764;2023-03-14T06:04:25;98699.88;;;9.98
69785;BMP280;14177;51.520;6.764;2023-03-14T06:06:58;98694.97;;;9.93
69785;BMP280;14177;51.520;6.764;2023-03-14T06:10:04;98700.81;;;9.97
69785;BMP280;14177;51.520;6.764;2023-03-14T06:12:33;98692.19;;;9.96
69785;BMP280;14177;51.520;6.764;2023-03-14T06:15:14;98699.78;;;9.99
69785;BMP280;14177;51.520;6.764;2023-03-14T06:18:09;98702.47;;;9.98
69785;BMP280;14177;51.520;6.764;2023-03-14T06:21:01;98704.75;;;10.04
69785;BMP280;14177;51.520;6.764;2023-03-14T06:23:36;98704.81;;;10.02
69785;BMP280;14177;51.520;6.764;2023-03-14T06:26:05;98695.09;;;10.06
69785;BMP280;14177;51.520;6.764;2023-03-14T06:28:48;98695.66;;;10.11
69785;BMP280;14177;51.520;6.764;2023-03-14T06:31:26;98704.72;;;10.18
69785;BMP280;14177;51.520;6.764;2023-03-14T06:34:13;98702.59;;;10.24
69785;BMP280;14177;51.520;6.764;2023-03-14T06:37:22;98704.25;;;10.25
69785;BMP280;14177;51.520;6.764;2023-03-14T06:39:51;98700.53;;;10.29
69785;BMP280;14177;51.520;6.764;2023-03-14T06:42:44;98698.38;;;10.36
69785;BMP280;14177;51.520;6.764;2023-03-14T06:45:13;98710.25;;;10.40
69785;BMP280;14177;51.520;6.764;2023-03-14T06:47:42;98696.53;;;10.38
69785;BMP280;14177;51.520;6.764;2023-03-14T06:50:13;98696.16;;;10.44
69785;BMP280;14177;51.520;6.764;2023-03-14T06:52:42;98694.28;;;10.46
69785;BMP280;14177;51.520;6.764;2023-03-14T06:55:19;98703.38;;;10.53
69785;BMP280;14177;51.520;6.764;2023-03-14T06:57:50;98692.69;;;10.57
69785;BMP280;14177;51.520;6.764;2023-03-14T07:00:18;98700.19;;;10.62
69785;BMP280;14177;51.520;6.764;2023-03-14T07:02:45;98693.41;;;10.59
69785;BMP280;14177;51.520;6.764;2023-03-14T07:05:29;98706.13;;;10.64
69785;BMP280;14177;51.520;6.764;2023-03-14T07:07:58;98707.06;;;10.63
69785;BMP280;14177;51.520;6.764;2023-03-14T07:10:25;98708.72;;;10.64
69785;BMP280;14177;51.520;6.764;2023-03-14T07:12:52;98716.59;;;10.62
69785;BMP280;14177;51.520;6.764;2023-03-14T07:15:23;98725.13;;;10.64
69785;BMP280;14177;51.520;6.764;2023-03-14T07:17:55;98710.47;;;10.63
69785;BMP280;14177;51.520;6.764;2023-03-14T07:20:25;98704.72;;;10.58
69785;BMP280;14177;51.520;6.764;2023-03-14T07:22:55;98708.72;;;10.64
69785;BMP280;14177;51.520;6.764;2023-03-14T07:25:34;98719.09;;;10.64
69785;BMP280;14177;51.520;6.764;2023-03-14T07:28:01;98717.88;;;10.69
69785;BMP280;14177;51.520;6.764;2023-03-14T07:30:29;98718.06;;;10.66
69785;BMP280;14177;51.520;6.764;2023-03-14T07:33:00;98724.66;;;10.72
69785;BMP280;14177;51.520;6.764;2023-03-14T07:35:28;98721.88;;;10.75
69785;BMP280;14177;51.520;6.764;2023-03-14T07:37:55;98720.81;;;10.77
69785;BMP280;14177;51.520;6.764;2023-03-14T07:40:29;98722.94;;;10.85
69785;BMP280;14177;51.520;6.764;2023-03-14T07:42:57;98722.75;;;10.88
69785;BMP280;14177;51.520;6.764;2023-03-14T07:45:34;98729.81;;;10.86
69785;BMP280;14177;51.520;6.764;2023-03-14T07:48:09;98729.88;;;10.84
69785;BMP280;14177;51.520;6.764;2023-03-14T07:50:38;98726.16;;;10.88
69785;BMP280;14177;51.520;6.764;2023-03-14T07:53:06;98736.38;;;10.91
69785;BMP280;14177;51.520;6.764;2023-03-14T07:55:33;98734.63;;;10.91
69785;BMP280;14177;51.520;6.764;2023-03-14T07:58:00;98735.53;;;10.90
69785;BMP280;14177;51.520;6.764;2023-03-14T08:00:28;98749.16;;;10.94
69785;BMP280;14177;51.520;6.764;2023-03-14T08:02:58;98745.72;;;10.93
69785;BMP280;14177;51.520;6.764;2023-03-14T08:05:26;98751.44;;;10.98
69785;BMP280;14177;51.520;6.764;2023-03-14T08:07:54;98750.66;;;11.10
69785;BMP280;14177;51.520;6.764;2023-03-14T08:10:22;98748.81;;;11.12
69785;BMP280;14177;51.520;6.764;2023-03-14T08:12:58;98745.97;;;11.29
69785;BMP280;14177;51.520;6.764;2023-03-14T08:15:30;98747.66;;;11.43
69785;BMP280;14177;51.520;6.764;2023-03-14T08:17:58;98744.19;;;11.56
69785;BMP280;14177;51.520;6.764;2023-03-14T08:20:28;98749.00;;;11.62
69785;BMP280;14177;51.520;6.764;2023-03-14T08:23:01;98745.22;;;11.66
69785;BMP280;14177;51.520;6.764;2023-03-14T08:25:30;98759.81;;;11.69
69785;BMP280;14177;51.520;6.764;2023-03-14T08:27:57;98746.47;;;11.73
69785;BMP280;14177;51.520;6.764;2023-03-14T08:30:25;98752.41;;;11.63
69785;BMP280;14177;51.520;6.764;2023-03-14T08:32:53;98753.47;;;11.60
69785;BMP280;14177;51.520;6.764;2023-03-14T08:35:24;98764.50;;;11.50
69785;BMP280;14177;51.520;6.764;2023-03-14T08:37:53;98749.50;;;11.41
69785;BMP280;14177;51.520;6.764;2023-03-14T08:40:20;98762.09;;;11.34
69785;BMP280;14177;51.520;6.764;2023-03-14T08:42:49;98768.81;;;11.24
69785;BMP280;14177;51.520;6.764;2023-03-14T08:45:19;98773.38;;;11.21
69785;BMP280;14177;51.520;6.764;2023-03-14T08:47:46;98777.94;;;11.17
69785;BMP280;14177;51.520;6.764;2023-03-14T08:50:16;98765.97;;;11.15
69785;BMP280;14177;51.520;6.764;2023-03-14T08:52:45;98780.09;;;11.11
69785;BMP280;14177;51.520;6.764;2023-03-14T08:55:13;98772.38;;;11.09
69785;BMP280;14177;51.520;6.764;2023-03-14T08:57:43;98782.88;;;11.08
69785;BMP280;14177;51.520;6.764;2023-03-14T09:00:12;98787.22;;;11.07
69785;BMP280;14177;51.520;6.764;2023-03-14T09:02:43;98797.44;;;11.10
69785;BMP280;14177;51.520;6.764;2023-03-14T09:05:13;98868.25;;;11.00
69785;BMP280;14177;51.520;6.764;2023-03-14T09:07:43;98897.88;;;10.84
69785;BMP280;14177;51.520;6.764;2023-03-14T09:10:14;98895.25;;;10.42
69785;BMP280;14177;51.520;6.764;2023-03-14T09:12:41;98901.16;;;10.16
69785;BMP280;14177;51.520;6.764;2023-03-14T09:15:09;98908.88;;;10.02
69785;BMP280;14177;51.520;6.764;2023-03-14T09:17:36;98905.53;;;9.84
69785;BMP280;14177;51.520;6.764;2023-03-14T09:20:05;98919.38;;;9.69
69785;BMP280;14177;51.520;6.764;2023-03-14T09:22:34;98925.91;;;9.61
69785;BMP280;14177;51.520;6.764;2023-03-14T09:25:04;98943.88;;;9.49
69785;BMP280;14177;51.520;6.764;2023-03-14T09:27:31;98944.16;;;9.44
69785;BMP280;14177;51.520;6.764;2023-03-14T09:29:58;98965.44;;;9.34
69785;BMP280;14177;51.520;6.764;2023-03-14T09:32:26;98973.91;;;9.37
69785;BMP280;14177;51.520;6.764;2023-03-14T09:34:54;98976.72;;;9.33
69785;BMP280;14177;51.520;6.764;2023-03-14T09:37:21;98985.50;;;9.30
69785;BMP280;14177;51.520;6.764;2023-03-14T09:39:50;98997.63;;;9.30
69785;BMP280;14177;51.520;6.764;2023-03-14T09:42:23;99018.44;;;9.28
69785;BMP280;14177;51.520;6.764;2023-03-14T09:45:04;99024.44;;;9.29
69785;BMP280;14177;51.520;6.764;2023-03-14T09:47:35;99037.38;;;9.29
69785;BMP280;14177;51.520;6.764;2023-03-14T09:50:16;99050.44;;;9.27
69785;BMP280;14177;51.520;6.764;2023-03-14T09:52:50;99062.78;;;9.22
69785;BMP280;14177;51.520;6.764;2023-03-14T09:55:22;99064.63;;;9.20
69785;BMP280;14177;51.520;6.764;2023-03-14T09:57:58;99080.16;;;9.20
69785;BMP280;14177;51.520;6.764;2023-03-14T10:00:29;99092.25;;;9.20
69785;BMP280;14177;51.520;6.764;2023-03-14T10:05:41;99101.38;;;8.94
69785;BMP280;14177;51.520;6.764;2023-03-14T10:08:13;99111.72;;;8.94
69785;BMP280;14177;51.520;6.764;2023-03-14T10:10:41;99124.66;;;8.94
69785;BMP280;14177;51.520;6.764;2023-03-14T10:13:22;99142.34;;;8.86
69785;BMP280;14177;51.520;6.764;2023-03-14T10:16:02;99158.41;;;8.93
69785;BMP280;14177;51.520;6.764;2023-03-14T10:18:32;99170.81;;;8.86
69785;BMP280;14177;51.520;6.764;2023-03-14T10:21:28;99181.03;;;8.72
69785;BMP280;14177;51.520;6.764;2023-03-14T10:26:58;99216.56;;;8.69
69785;BMP280;14177;51.520;6.764;2023-03-14T10:29:30;99226.66;;;8.56
69785;BMP280;14177;51.520;6.764;2023-03-14T10:32:05;99242.25;;;8.55
69785;BMP280;14177;51.520;6.764;2023-03-14T10:34:40;99254.81;;;8.44
69785;BMP280;14177;51.520;6.764;2023-03-14T10:37:18;99285.59;;;8.32
69785;BMP280;14177;51.520;6.764;2023-03-14T10:39:52;99290.50;;;8.19
69785;BMP280;14177;51.520;6.764;2023-03-14T10:45:02;99325.16;;;8.14
69785;BMP280;14177;51.520;6.764;2023-03-14T10:47:32;99331.25;;;8.13
69785;BMP280;14177;51.520;6.764;2023-03-14T10:50:30;99357.19;;;8.11
69785;BMP280;14177;51.520;6.764;2023-03-14T10:53:03;99364.22;;;8.08
69785;BMP280;14177;51.520;6.764;2023-03-14T10:55:43;99380.38;;;8.13
69785;BMP280;14177;51.520;6.764;2023-03-14T10:58:27;99383.38;;;8.24
69785;BMP280;14177;51.520;6.764;2023-03-14T11:01:16;99398.91;;;8.24
69785;BMP280;14177;51.520;6.764;2023-03-14T11:07:28;99431.97;;;8.16
69785;BMP280;14177;51.520;6.764;2023-03-14T11:10:32;99430.56;;;8.30
69785;BMP280;14177;51.520;6.764;2023-03-14T11:19:54;99461.06;;;8.80
69785;BMP280;14177;51.520;6.764;2023-03-14T11:25:37;99492.28;;;8.77
69785;BMP280;14177;51.520;6.764;2023-03-14T11:28:22;99504.53;;;8.74
69785;BMP280;14177;51.520;6.764;2023-03-14T11:31:03;99518.06;;;8.60
69785;BMP280;14177;51.520;6.764;2023-03-14T11:34:10;99521.09;;;8.50
69785;BMP280;14177;51.520;6.764;2023-03-14T11:36:52;99534.09;;;8.48
69785;BMP280;14177;51.520;6.764;2023-03-14T11:39:20;99545.16;;;8.52
69785;BMP280;14177;51.520;6.764;2023-03-14T11:41:53;99552.41;;;8.44
69785;BMP280;14177;51.520;6.764;2023-03-14T11:44:34;99561.78;;;8.46
69785;BMP280;14177;51.520;6.764;2023-03-14T11:47:18;99568.53;;;8.50
69785;BMP280;14177;51.520;6.764;2023-03-14T11:53:02;99582.31;;;8.71
69785;BMP280;14177;51.520;6.764;2023-03-14T11:55:34;99590.16;;;8.69
69785;BMP280;14177;51.520;6.764;2023-03-14T12:00:41;99596.78;;;8.55
69785;BMP280;14177;51.520;6.764;2023-03-14T12:03:45;99605.22;;;8.60
69785;BMP280;14177;51.520;6.764;2023-03-14T12:06:31;99610.41;;;8.80
69785;BMP280;14177;51.520;6.764;2023-03-14T12:09:03;99625.25;;;8.96
69785;BMP280;14177;51.520;6.764;2023-03-14T12:14:35;99630.94;;;9.24
69785;BMP280;14177;51.520;6.764;2023-03-14T12:22:50;99650.06;;;9.02
69785;BMP280;14177;51.520;6.764;2023-03-14T12:25:27;99665.25;;;8.89
69785;BMP280;14177;51.520;6.764;2023-03-14T12:35:42;99733.75;;;8.17
69785;BMP280;14177;51.520;6.764;2023-03-14T12:41:11;99739.09;;;8.11
69785;BMP280;14177;51.520;6.764;2023-03-14T12:43:41;99743.03;;;8.22
69785;BMP280;14177;51.520;6.764;2023-03-14T12:49:03;99749.91;;;8.87
69785;BMP280;14177;51.520;6.764;2023-03-14T12:51:42;99748.16;;;9.09
69785;BMP280;14177;51.520;6.764;2023-03-14T12:54:46;99753.00;;;9.38
69785;BMP280;14177;51.520;6.764;2023-03-14T13:00:16;99782.63;;;9.11
69785;BMP280;14177;51.520;6.764;2023-03-14T13:02:46;99810.78;;;8.99
69785;BMP280;14177;51.520;6.764;2023-03-14T13:05:20;99820.72;;;8.65
69785;BMP280;14177;51.520;6.764;2023-03-14T13:10:45;99834.03;;;8.33
69785;BMP280;14177;51.520;6.764;2023-03-14T13:13:23;99829.81;;;8.31
69785;BMP280;14177;51.520;6.764;2023-03-14T13:15:58;99847.00;;;8.32
69785;BMP280;14177;51.520;6.764;2023-03-14T13:18:41;99849.28;;;8.41
69785;BMP280;14177;51.520;6.764;2023-03-14T13:21:18;99851.28;;;8.33
69785;BMP280;14177;51.520;6.764;2023-03-14T13:23:59;99861.66;;;8.33
69785;BMP280;14177;51.520;6.764;2023-03-14T13:26:41;99863.91;;;8.42
69785;BMP280;14177;51.520;6.764;2023-03-14T13:29:24;99869.56;;;8.51
69785;BMP280;14177;51.520;6.764;2023-03-14T13:31:55;99872.00;;;8.55
69785;BMP280;14177;51.520;6.764;2023-03-14T13:34:32;99867.22;;;8.68
69785;BMP280;14177;51.520;6.764;2023-03-14T13:37:00;99877.84;;;8.83
69785;BMP280;14177;51.520;6.764;2023-03-14T13:39:28;99876.06;;;9.07
69785;BMP280;14177;51.520;6.764;2023-03-14T13:42:01;99876.38;;;9.42
69785;BMP280;14177;51.520;6.764;2023-03-14T13:44:38;99879.34;;;9.74
69785;BMP280;14177;51.520;6.764;2023-03-14T13:47:14;99890.78;;;10.10
69785;BMP280;14177;51.520;6.764;2023-03-14T13:49:43;99889.78;;;10.33
69785;BMP280;14177;51.520;6.764;2023-03-14T13:52:36;99896.72;;;10.52
69785;BMP280;14177;51.520;6.764;2023-03-14T13:55:06;99902.25;;;10.63
69785;BMP280;14177;51.520;6.764;2023-03-14T13:57:48;99910.78;;;11.03
69785;BMP280;14177;51.520;6.764;2023-03-14T14:00:24;99912.38;;;11.24
69785;BMP280;14177;51.520;6.764;2023-03-14T14:02:59;99924.31;;;11.28
69785;BMP280;14177;51.520;6.764;2023-03-14T14:05:29;99929.38;;;11.31
69785;BMP280;14177;51.520;6.764;2023-03-14T14:07:56;99948.38;;;11.15
69785;BMP280;14177;51.520;6.764;2023-03-14T14:10:27;99948.91;;;10.85
69785;BMP280;14177;51.520;6.764;2023-03-14T14:13:01;99964.09;;;11.12
69785;BMP280;14177;51.520;6.764;2023-03-14T14:15:41;99962.75;;;11.40
69785;BMP280;14177;51.520;6.764;2023-03-14T14:18:15;99958.31;;;11.61
69785;BMP280;14177;51.520;6.764;2023-03-14T14:20:47;99964.13;;;12.01
69785;BMP280;14177;51.520;6.764;2023-03-14T14:23:22;99960.84;;;12.31
69785;BMP280;14177;51.520;6.764;2023-03-14T14:25:57;99982.22;;;12.21
69785;BMP280;14177;51.520;6.764;2023-03-14T14:28:29;99986.19;;;12.11
69785;BMP280;14177;51.520;6.764;2023-03-14T14:33:57;100000.88;;;11.95
69785;BMP280;14177;51.520;6.764;2023-03-14T14:36:28;99989.63;;;11.95
69785;BMP280;14177;51.520;6.764;2023-03-14T14:41:49;100004.72;;;12.05
69785;BMP280;14177;51.520;6.764;2023-03-14T14:44:27;100013.91;;;12.12
69785;BMP280;14177;51.520;6.764;2023-03-14T14:46:56;100020.94;;;12.10
69785;BMP280;14177;51.520;6.764;2023-03-14T14:49:33;100026.34;;;11.89
69785;BMP280;14177;51.520;6.764;2023-03-14T14:52:13;100034.00;;;11.92
69785;BMP280;14177;51.520;6.764;2023-03-14T14:54:58;100038.78;;;11.65
69785;BMP280;14177;51.520;6.764;2023-03-14T14:57:33;100046.38;;;11.31
69785;BMP280;14177;51.520;6.764;2023-03-14T15:00:09;100064.09;;;11.03
69785;BMP280;14177;51.520;6.764;2023-03-14T15:02:50;100053.53;;;10.88
69785;BMP280;14177;51.520;6.764;2023-03-14T15:05:27;100072.44;;;10.91
69785;BMP280;14177;51.520;6.764;2023-03-14T15:07:56;100072.72;;;10.86
69785;BMP280;14177;51.520;6.764;2023-03-14T15:10:25;100095.69;;;10.75
69785;BMP280;14177;51.520;6.764;2023-03-14T15:12:52;100103.25;;;10.59
69785;BMP280;14177;51.520;6.764;2023-03-14T15:15:20;100116.53;;;10.53
69785;BMP280;14177;51.520;6.764;2023-03-14T15:17:47;100117.59;;;10.48
69785;BMP280;14177;51.520;6.764;2023-03-14T15:20:19;100134.16;;;10.24
69785;BMP280;14177;51.520;6.764;2023-03-14T15:22:50;100142.13;;;9.96
69785;BMP280;14177;51.520;6.764;2023-03-14T15:25:17;100144.81;;;9.95
69785;BMP280;14177;51.520;6.764;2023-03-14T15:28:18;100147.41;;;9.95
69785;BMP280;14177;51.520;6.764;2023-03-14T15:30:49;100150.69;;;9.77
69785;BMP280;14177;51.520;6.764;2023-03-14T15:33:18;100157.66;;;9.75
69785;BMP280;14177;51.520;6.764;2023-03-14T15:35:46;100154.63;;;9.64
69785;BMP280;14177;51.520;6.764;2023-03-14T15:38:20;100152.53;;;9.51
69785;BMP280;14177;51.520;6.764;2023-03-14T15:40:51;100162.31;;;9.44
69785;BMP280;14177;51.520;6.764;2023-03-14T15:43:19;100169.03;;;9.48
69785;BMP280;14177;51.520;6.764;2023-03-14T15:45:47;100179.53;;;9.45
69785;BMP280;14177;51.520;6.764;2023-03-14T15:48:20;100183.16;;;9.41
69785;BMP280;14177;51.520;6.764;2023-03-14T15:50:47;100187.84;;;9.30
69785;BMP280;14177;51.520;6.764;2023-03-14T15:53:14;100198.44;;;9.24
69785;BMP280;14177;51.520;6.764;2023-03-14T15:55:41;100204.50;;;9.23
69785;BMP280;14177;51.520;6.764;2023-03-14T15:58:18;100219.31;;;9.20
69785;BMP280;14177;51.520;6.764;2023-03-14T16:00:49;100228.19;;;9.13
69785;BMP280;14177;51.520;6.764;2023-03-14T16:03:17;100236.13;;;9.08
69785;BMP280;14177;51.520;6.764;2023-03-14T16:05:44;100249.88;;;9.10
69785;BMP280;14177;51.520;6.764;2023-03-14T16:08:11;100250.06;;;9.04
69785;BMP280;14177;51.520;6.764;2023-03-14T16:10:37;100251.97;;;8.99
69785;BMP280;14177;51.520;6.764;2023-03-14T16:13:05;100248.72;;;8.93
69785;BMP280;14177;51.520;6.764;2023-03-14T16:15:32;100255.84;;;8.86
69785;BMP280;14177;51.520;6.764;2023-03-14T16:17:59;100262.00;;;8.82
69785;BMP280;14177;51.520;6.764;2023-03-14T16:20:32;100274.16;;;8.80
69785;BMP280;14177;51.520;6.764;2023-03-14T16:23:13;100284.44;;;8.83
69785;BMP280;14177;51.520;6.764;2023-03-14T16:25:44;100292.19;;;8.83
69785;BMP280;14177;51.520;6.764;2023-03-14T16:28:11;100286.22;;;8.81
69785;BMP280;14177;51.520;6.764;2023-03-14T16:30:38;100299.34;;;8.75
69785;BMP280;14177;51.520;6.764;2023-03-14T16:33:07;100310.13;;;8.63
69785;BMP280;14177;51.520;6.764;2023-03-14T16:36:01;100313.94;;;8.50
69785;BMP280;14177;51.520;6.764;2023-03-14T16:38:33;100322.00;;;8.42